Nearby METAR Reports

 

KSJC - San Jose, California, USA
Distance from station: NE 14km
Updated: 23/06/2021 14:53
Overcast
Overcast
 Wind from SSW
Wind: SSW 9 km/h
Temperature: 17°C
Dew Point: 11°C
Humidity: 68%
Barometer: 1012.5 hPa
Clouds: Overcast
Visibility: 16 km
Cloud details: Few Clouds 427 m
Mostly cloudy 732 m
Overcast 823 m
2021/06/23 12:53 KSJC 231253Z 20005KT 10SM FEW014 BKN024 OVC027 17/11 A2990 RMK AO2 SLP123 T01670106
KNUQ - Moffett Nas/Mtn, California, USA
Distance from station: N 14km
Updated: 23/06/2021 15:35
Overcast
Overcast
 Wind from SE
Wind: SE 7 km/h
Temperature: 17°C
Dew Point: 11°C
Humidity: 68%
Barometer: 1012.5 hPa
Clouds: Overcast
Visibility: 16 km
Cloud details: Overcast 762 m
2021/06/23 13:35 KNUQ 231335Z AUTO 14004KT 10SM OVC025 17/11 A2990 RMK AO2
 
KPAO - Palo Alto, California, USA
Distance from station: NNW 23km
Updated: 23/06/2021 05:47
NOT Current
Clear
Clear
 Wind from NW
Wind: NW 11 km/h
Temperature: 19°C
Dew Point: 11°C
Humidity: 60%
Barometer: 1011.5 hPa
Clouds: Clear
Visibility: 16 km
2021/06/23 03:47 KPAO 230347Z 31006KT 10SM SKC 19/11 A2987 RMK LAST
KRHV - San Jose/Reid, California, USA
Distance from station: ENE 19km
Updated: 23/06/2021 06:52
NOT Current
Clear
Clear
 Wind from NW
Wind: NW 19 km/h
Temperature: 18°C
Dew Point: 11°C
Humidity: 64%
Barometer: 1012.5 hPa
Clouds: Clear
Visibility: 16 km
2021/06/23 04:52 KRHV 230452Z 31010KT 10SM SKC 18/11 A2990 RMK LAST
 
KOAK - Oakland, California, USA
Distance from station: NNW 50km
Updated: 23/06/2021 14:53
Mostly cloudy
Mostly cloudy
 Wind from varies
Wind: varies 7 km/h
Temperature: 16°C
Dew Point: 13°C
Humidity: 83%
Barometer: 1012.5 hPa
Clouds: Mostly cloudy
Visibility: 16 km
Cloud details: Few Clouds 305 m
Partly cloudy 457 m
Mostly cloudy 701 m
2021/06/23 12:53 KOAK 231253Z VRB04KT 10SM FEW010 SCT015 BKN023 16/13 A2990 RMK AO2 SLP124 T01610128
KSQL - San Carlos Airpo, California, USA
Distance from station: NW 34km
Updated: 23/06/2021 15:35
Overcast
Overcast
 Wind from calm
Wind: Calm
Temperature: 17°C
Dew Point: 12°C
Humidity: 73%
Barometer: 1012.9 hPa
Clouds: Overcast
Visibility: 16 km
Cloud details: Overcast 762 m
2021/06/23 13:35 KSQL 231335Z AUTO 00000KT 10SM OVC025 17/12 A2991 RMK AO2
 
KSFO - San Francisco, California, USA
Distance from station: NW 49km
Updated: 23/06/2021 14:56
Mostly cloudy
Mostly cloudy
 Wind from NW
Wind: NW 9 km/h
Temperature: 17°C
Dew Point: 13°C
Humidity: 77%
Barometer: 1012.2 hPa
Clouds: Mostly cloudy
Visibility: 16 km
Cloud details: Mostly cloudy 792 m
2021/06/23 12:56 KSFO 231256Z 32005KT 10SM BKN026 17/13 A2989 RMK AO2 SLP121 T01720128 $
KE16 - San Martin, California, USA
Distance from station: ESE 43km
Updated: 23/06/2021 15:35
Overcast
Overcast
 Wind from S
Wind: S 7 km/h
Temperature: 15°C
Dew Point: 11°C
Humidity: 77%
Barometer: 1013.9 hPa
Clouds: Overcast
Visibility: 16 km
Cloud details: Overcast 701 m
2021/06/23 13:35 KE16 231335Z AUTO 18004KT 10SM OVC023 15/11 A2994 RMK AO2 PWINO PNO
 
KWVI - Watsonville, California, USA
Distance from station: SSE 44km
Updated: 23/06/2021 14:53
Overcast
Overcast
 Wind from calm
Wind: Calm
Temperature: 16°C
Dew Point: 12°C
Humidity: 77%
Barometer: 1012.9 hPa
Clouds: Overcast
Visibility: 16 km
Cloud details: Overcast 579 m
2021/06/23 12:53 KWVI 231253Z AUTO 00000KT 10SM OVC019 16/12 A2991 RMK AO2 SLP128 T01560117
KHAF - Half Moon Bay, California, USA
Distance from station: WNW 50km
Updated: 23/06/2021 15:35
Overcast
Overcast
 Wind from calm
Wind: Calm
Temperature: 14°C
Dew Point: 13°C
Humidity: 94%
Barometer: 1013.2 hPa
Clouds: Overcast
Visibility: 16 km
Cloud details: Overcast 640 m
2021/06/23 13:35 KHAF 231335Z AUTO 00000KT 10SM OVC021 14/13 A2992 RMK AO2
 
KHWD - Hayward, California, USA
Distance from station: N 44km
Updated: 23/06/2021 14:54
Overcast
Overcast
 Wind from NNW
Wind: NNW 7 km/h
Temperature: 16°C
Dew Point: 12°C
Humidity: 77%
Barometer: 1012.2 hPa
Clouds: Overcast
Visibility: 16 km
Cloud details: Overcast 579 m
2021/06/23 12:54 KHWD 231254Z 33004KT 10SM OVC019 16/12 A2989 RMK AO2 SLP130 T01610122
KLVK - Livermore, California, USA
Distance from station: NNE 51km
Updated: 23/06/2021 14:53
Overcast
Overcast
 Wind from W
Wind: W 11 km/h
Temperature: 16°C
Dew Point: 12°C
Humidity: 77%
Barometer: 1012.2 hPa
Clouds: Overcast
Visibility: 16 km
Cloud details: Overcast 579 m
2021/06/23 12:53 KLVK 231253Z AUTO 28006KT 10SM OVC019 16/12 A2989 RMK AO2 SLP116 T01610117